sensor_id;sensor_type;location;lat;lon;timestamp;temperature;humidity
9998;DHT22;5038;53.064;8.624;2023-07-29T00:01:10;19.50;99.90
9998;DHT22;5038;53.064;8.624;2023-07-29T00:03:38;19.50;99.90
9998;DHT22;5038;53.064;8.624;2023-07-29T00:06:09;19.40;99.90
9998;DHT22;5038;53.064;8.624;2023-07-29T00:08:38;19.40;99.90
9998;DHT22;5038;53.064;8.624;2023-07-29T00:11:06;19.40;99.90
9998;DHT22;5038;53.064;8.624;2023-07-29T00:13:34;19.40;99.90
9998;DHT22;5038;53.064;8.624;2023-07-29T00:16:02;19.40;99.90
9998;DHT22;5038;53.064;8.624;2023-07-29T00:18:30;19.40;99.90
9998;DHT22;5038;53.064;8.624;2023-07-29T00:20:58;19.40;99.90
9998;DHT22;5038;53.064;8.624;2023-07-29T00:23:28;19.30;99.90
9998;DHT22;5038;53.064;8.624;2023-07-29T00:25:56;19.30;99.90
9998;DHT22;5038;53.064;8.624;2023-07-29T00:28:25;19.30;99.90
9998;DHT22;5038;53.064;8.624;2023-07-29T00:30:53;19.30;99.90
9998;DHT22;5038;53.064;8.624;2023-07-29T00:33:21;19.30;99.90
9998;DHT22;5038;53.064;8.624;2023-07-29T00:35:49;19.30;99.90
9998;DHT22;5038;53.064;8.624;2023-07-29T00:38:17;19.30;99.90
9998;DHT22;5038;53.064;8.624;2023-07-29T00:40:47;19.30;99.90
9998;DHT22;5038;53.064;8.624;2023-07-29T00:43:15;19.30;99.90
9998;DHT22;5038;53.064;8.624;2023-07-29T00:45:44;19.30;99.90
9998;DHT22;5038;53.064;8.624;2023-07-29T00:48:13;19.30;99.90
9998;DHT22;5038;53.064;8.624;2023-07-29T00:50:42;19.20;99.90
9998;DHT22;5038;53.064;8.624;2023-07-29T00:53:10;19.20;99.90
9998;DHT22;5038;53.064;8.624;2023-07-29T00:55:38;19.20;99.90
9998;DHT22;5038;53.064;8.624;2023-07-29T00:58:08;19.20;99.90
9998;DHT22;5038;53.064;8.624;2023-07-29T01:00:37;19.20;99.90
9998;DHT22;5038;53.064;8.624;2023-07-29T01:03:05;19.20;99.90
9998;DHT22;5038;53.064;8.624;2023-07-29T01:05:43;19.10;99.90
9998;DHT22;5038;53.064;8.624;2023-07-29T01:08:20;19.10;99.90
9998;DHT22;5038;53.064;8.624;2023-07-29T01:10:56;19.10;99.90
9998;DHT22;5038;53.064;8.624;2023-07-29T01:13:31;19.10;99.90
9998;DHT22;5038;53.064;8.624;2023-07-29T01:16:04;19.10;99.90
9998;DHT22;5038;53.064;8.624;2023-07-29T01:18:36;19.10;99.90
9998;DHT22;5038;53.064;8.624;2023-07-29T01:21:08;19.10;99.90
9998;DHT22;5038;53.064;8.624;2023-07-29T01:23:38;19.10;99.90
9998;DHT22;5038;53.064;8.624;2023-07-29T01:26:06;19.10;99.90
9998;DHT22;5038;53.064;8.624;2023-07-29T01:28:35;19.10;99.90
9998;DHT22;5038;53.064;8.624;2023-07-29T01:31:08;19.10;99.90
9998;DHT22;5038;53.064;8.624;2023-07-29T01:33:42;19.10;99.90
9998;DHT22;5038;53.064;8.624;2023-07-29T01:36:17;19.00;99.90
9998;DHT22;5038;53.064;8.624;2023-07-29T01:38:48;19.00;99.90
9998;DHT22;5038;53.064;8.624;2023-07-29T01:41:17;19.00;99.90
9998;DHT22;5038;53.064;8.624;2023-07-29T01:43:47;19.00;99.90
9998;DHT22;5038;53.064;8.624;2023-07-29T01:46:15;19.00;99.90
9998;DHT22;5038;53.064;8.624;2023-07-29T01:48:43;18.90;99.90
9998;DHT22;5038;53.064;8.624;2023-07-29T01:51:14;18.90;99.90
9998;DHT22;5038;53.064;8.624;2023-07-29T01:53:42;18.90;99.90
9998;DHT22;5038;53.064;8.624;2023-07-29T01:56:12;18.90;99.90
9998;DHT22;5038;53.064;8.624;2023-07-29T01:58:49;18.90;99.90
9998;DHT22;5038;53.064;8.624;2023-07-29T02:01:17;18.90;99.90
9998;DHT22;5038;53.064;8.624;2023-07-29T02:03:45;18.80;99.90
9998;DHT22;5038;53.064;8.624;2023-07-29T02:06:13;18.80;99.90
9998;DHT22;5038;53.064;8.624;2023-07-29T02:08:41;18.80;99.90
9998;DHT22;5038;53.064;8.624;2023-07-29T02:11:09;18.80;99.90
9998;DHT22;5038;53.064;8.624;2023-07-29T02:13:39;18.80;99.90
9998;DHT22;5038;53.064;8.624;2023-07-29T02:16:07;18.70;99.90
9998;DHT22;5038;53.064;8.624;2023-07-29T02:18:35;18.70;99.90
9998;DHT22;5038;53.064;8.624;2023-07-29T02:21:04;18.70;99.90
9998;DHT22;5038;53.064;8.624;2023-07-29T02:23:32;18.70;99.90
9998;DHT22;5038;53.064;8.624;2023-07-29T02:26:00;18.70;99.90
9998;DHT22;5038;53.064;8.624;2023-07-29T02:28:28;18.70;99.90
9998;DHT22;5038;53.064;8.624;2023-07-29T02:31:15;18.70;99.90
9998;DHT22;5038;53.064;8.624;2023-07-29T02:33:44;18.60;99.90
9998;DHT22;5038;53.064;8.624;2023-07-29T02:36:13;18.60;99.90
9998;DHT22;5038;53.064;8.624;2023-07-29T02:38:42;18.60;99.90
9998;DHT22;5038;53.064;8.624;2023-07-29T02:41:10;18.60;99.90
9998;DHT22;5038;53.064;8.624;2023-07-29T02:43:42;18.60;99.90
9998;DHT22;5038;53.064;8.624;2023-07-29T02:46:12;18.60;99.90
9998;DHT22;5038;53.064;8.624;2023-07-29T02:48:41;18.60;99.90
9998;DHT22;5038;53.064;8.624;2023-07-29T02:51:09;18.50;99.90
9998;DHT22;5038;53.064;8.624;2023-07-29T02:53:37;18.50;99.90
9998;DHT22;5038;53.064;8.624;2023-07-29T02:56:06;18.50;99.90
9998;DHT22;5038;53.064;8.624;2023-07-29T02:58:36;18.50;99.90
9998;DHT22;5038;53.064;8.624;2023-07-29T03:01:06;18.50;99.90
9998;DHT22;5038;53.064;8.624;2023-07-29T03:03:36;18.40;99.90
9998;DHT22;5038;53.064;8.624;2023-07-29T03:06:06;18.40;99.90
9998;DHT22;5038;53.064;8.624;2023-07-29T03:08:35;18.40;99.90
9998;DHT22;5038;53.064;8.624;2023-07-29T03:11:06;18.40;99.90
9998;DHT22;5038;53.064;8.624;2023-07-29T03:13:34;18.40;99.90
9998;DHT22;5038;53.064;8.624;2023-07-29T03:16:06;18.40;99.90
9998;DHT22;5038;53.064;8.624;2023-07-29T03:18:37;18.30;99.90
9998;DHT22;5038;53.064;8.624;2023-07-29T03:21:05;18.30;99.90
9998;DHT22;5038;53.064;8.624;2023-07-29T03:23:33;18.30;99.90
9998;DHT22;5038;53.064;8.624;2023-07-29T03:26:03;18.30;99.90
9998;DHT22;5038;53.064;8.624;2023-07-29T03:28:39;18.30;99.90
9998;DHT22;5038;53.064;8.624;2023-07-29T03:31:07;18.30;99.90
9998;DHT22;5038;53.064;8.624;2023-07-29T03:33:37;18.30;99.90
9998;DHT22;5038;53.064;8.624;2023-07-29T03:36:06;18.30;99.90
9998;DHT22;5038;53.064;8.624;2023-07-29T03:38:34;18.30;99.90
9998;DHT22;5038;53.064;8.624;2023-07-29T03:41:07;18.30;99.90
9998;DHT22;5038;53.064;8.624;2023-07-29T03:43:35;18.30;99.90
9998;DHT22;5038;53.064;8.624;2023-07-29T03:46:03;18.30;99.90
9998;DHT22;5038;53.064;8.624;2023-07-29T03:48:36;18.30;99.90
9998;DHT22;5038;53.064;8.624;2023-07-29T03:51:05;18.30;99.90
9998;DHT22;5038;53.064;8.624;2023-07-29T03:53:33;18.30;99.90
9998;DHT22;5038;53.064;8.624;2023-07-29T03:56:01;18.30;99.90
9998;DHT22;5038;53.064;8.624;2023-07-29T03:58:29;18.30;99.90
9998;DHT22;5038;53.064;8.624;2023-07-29T04:00:58;18.30;99.90
9998;DHT22;5038;53.064;8.624;2023-07-29T04:03:26;18.30;99.90
9998;DHT22;5038;53.064;8.624;2023-07-29T04:05:56;18.30;99.90
9998;DHT22;5038;53.064;8.624;2023-07-29T04:08:24;18.30;99.90
9998;DHT22;5038;53.064;8.624;2023-07-29T04:10:53;18.30;99.90
9998;DHT22;5038;53.064;8.624;2023-07-29T04:13:21;18.30;99.90
9998;DHT22;5038;53.064;8.624;2023-07-29T04:15:49;18.30;99.90
9998;DHT22;5038;53.064;8.624;2023-07-29T04:18:18;18.30;99.90
9998;DHT22;5038;53.064;8.624;2023-07-29T04:20:47;18.30;99.90
9998;DHT22;5038;53.064;8.624;2023-07-29T04:23:17;18.30;99.90
9998;DHT22;5038;53.064;8.624;2023-07-29T04:25:45;18.30;99.90
9998;DHT22;5038;53.064;8.624;2023-07-29T04:28:13;18.30;99.90
9998;DHT22;5038;53.064;8.624;2023-07-29T04:30:41;18.30;99.90
9998;DHT22;5038;53.064;8.624;2023-07-29T04:33:09;18.30;99.90
9998;DHT22;5038;53.064;8.624;2023-07-29T04:35:38;18.30;99.90
9998;DHT22;5038;53.064;8.624;2023-07-29T04:38:06;18.40;99.90
9998;DHT22;5038;53.064;8.624;2023-07-29T04:40:36;18.40;99.90
9998;DHT22;5038;53.064;8.624;2023-07-29T04:43:04;18.40;99.90
9998;DHT22;5038;53.064;8.624;2023-07-29T04:45:34;18.40;99.90
9998;DHT22;5038;53.064;8.624;2023-07-29T04:48:02;18.40;99.90
9998;DHT22;5038;53.064;8.624;2023-07-29T04:50:31;18.40;99.90
9998;DHT22;5038;53.064;8.624;2023-07-29T04:52:59;18.40;99.90
9998;DHT22;5038;53.064;8.624;2023-07-29T04:55:27;18.40;99.90
9998;DHT22;5038;53.064;8.624;2023-07-29T04:57:57;18.40;99.90
9998;DHT22;5038;53.064;8.624;2023-07-29T05:00:26;18.40;99.90
9998;DHT22;5038;53.064;8.624;2023-07-29T05:02:55;18.40;99.90
9998;DHT22;5038;53.064;8.624;2023-07-29T05:05:23;18.50;99.90
9998;DHT22;5038;53.064;8.624;2023-07-29T05:07:51;18.40;99.90
9998;DHT22;5038;53.064;8.624;2023-07-29T05:10:19;18.50;99.90
9998;DHT22;5038;53.064;8.624;2023-07-29T05:12:48;18.50;99.90
9998;DHT22;5038;53.064;8.624;2023-07-29T05:15:17;18.50;99.90
9998;DHT22;5038;53.064;8.624;2023-07-29T05:17:46;18.50;99.90
9998;DHT22;5038;53.064;8.624;2023-07-29T05:20:15;18.60;99.90
9998;DHT22;5038;53.064;8.624;2023-07-29T05:22:43;18.60;99.90
9998;DHT22;5038;53.064;8.624;2023-07-29T05:25:11;18.60;99.90
9998;DHT22;5038;53.064;8.624;2023-07-29T05:27:39;18.60;99.90
9998;DHT22;5038;53.064;8.624;2023-07-29T05:30:08;18.60;99.90
9998;DHT22;5038;53.064;8.624;2023-07-29T05:32:37;18.70;99.90
9998;DHT22;5038;53.064;8.624;2023-07-29T05:35:06;18.70;99.90
9998;DHT22;5038;53.064;8.624;2023-07-29T05:37:37;18.70;99.90
9998;DHT22;5038;53.064;8.624;2023-07-29T05:40:07;18.70;99.90
9998;DHT22;5038;53.064;8.624;2023-07-29T05:42:37;18.70;99.90
9998;DHT22;5038;53.064;8.624;2023-07-29T05:45:07;18.70;99.90
9998;DHT22;5038;53.064;8.624;2023-07-29T05:47:35;18.70;99.90
9998;DHT22;5038;53.064;8.624;2023-07-29T05:50:05;18.70;99.90
9998;DHT22;5038;53.064;8.624;2023-07-29T05:52:34;18.70;99.90
9998;DHT22;5038;53.064;8.624;2023-07-29T05:55:03;18.70;99.90
9998;DHT22;5038;53.064;8.624;2023-07-29T05:57:31;18.80;99.90
9998;DHT22;5038;53.064;8.624;2023-07-29T05:59:59;18.80;99.90
9998;DHT22;5038;53.064;8.624;2023-07-29T06:02:28;18.80;99.90
9998;DHT22;5038;53.064;8.624;2023-07-29T06:04:56;18.90;99.90
9998;DHT22;5038;53.064;8.624;2023-07-29T06:07:27;18.90;99.90
9998;DHT22;5038;53.064;8.624;2023-07-29T06:09:57;18.90;99.90
9998;DHT22;5038;53.064;8.624;2023-07-29T06:12:25;18.90;99.90
9998;DHT22;5038;53.064;8.624;2023-07-29T06:14:53;18.90;99.90
9998;DHT22;5038;53.064;8.624;2023-07-29T06:17:21;18.90;99.90
9998;DHT22;5038;53.064;8.624;2023-07-29T06:19:50;19.00;99.90
9998;DHT22;5038;53.064;8.624;2023-07-29T06:22:18;19.00;99.90
9998;DHT22;5038;53.064;8.624;2023-07-29T06:24:47;19.00;99.90
9998;DHT22;5038;53.064;8.624;2023-07-29T06:27:15;19.00;99.90
9998;DHT22;5038;53.064;8.624;2023-07-29T06:29:43;19.10;99.90
9998;DHT22;5038;53.064;8.624;2023-07-29T06:32:11;19.10;99.90
9998;DHT22;5038;53.064;8.624;2023-07-29T06:34:40;19.10;99.90
9998;DHT22;5038;53.064;8.624;2023-07-29T06:37:08;19.10;99.90
9998;DHT22;5038;53.064;8.624;2023-07-29T06:39:36;19.10;99.90
9998;DHT22;5038;53.064;8.624;2023-07-29T06:42:06;19.10;99.90
9998;DHT22;5038;53.064;8.624;2023-07-29T06:44:34;19.10;99.90
9998;DHT22;5038;53.064;8.624;2023-07-29T06:47:03;19.10;99.90
9998;DHT22;5038;53.064;8.624;2023-07-29T06:49:31;19.10;99.90
9998;DHT22;5038;53.064;8.624;2023-07-29T06:51:59;19.20;99.90
9998;DHT22;5038;53.064;8.624;2023-07-29T06:54:27;19.20;99.90
9998;DHT22;5038;53.064;8.624;2023-07-29T06:56:55;19.20;99.90
9998;DHT22;5038;53.064;8.624;2023-07-29T06:59:25;19.30;99.90
9998;DHT22;5038;53.064;8.624;2023-07-29T07:01:53;19.30;99.90
9998;DHT22;5038;53.064;8.624;2023-07-29T07:04:21;19.30;99.90
9998;DHT22;5038;53.064;8.624;2023-07-29T07:06:49;19.40;99.90
9998;DHT22;5038;53.064;8.624;2023-07-29T07:09:17;19.40;99.90
9998;DHT22;5038;53.064;8.624;2023-07-29T07:11:46;19.40;99.90
9998;DHT22;5038;53.064;8.624;2023-07-29T07:14:14;19.50;99.90
9998;DHT22;5038;53.064;8.624;2023-07-29T07:16:44;19.50;99.90
9998;DHT22;5038;53.064;8.624;2023-07-29T07:19:12;19.50;99.90
9998;DHT22;5038;53.064;8.624;2023-07-29T07:21:40;19.60;99.90
9998;DHT22;5038;53.064;8.624;2023-07-29T07:24:08;19.60;99.90
9998;DHT22;5038;53.064;8.624;2023-07-29T07:26:37;19.70;99.90
9998;DHT22;5038;53.064;8.624;2023-07-29T07:29:05;19.80;99.90
9998;DHT22;5038;53.064;8.624;2023-07-29T07:31:34;19.80;99.90
9998;DHT22;5038;53.064;8.624;2023-07-29T07:34:03;19.70;99.90
9998;DHT22;5038;53.064;8.624;2023-07-29T07:36:31;19.70;99.90
9998;DHT22;5038;53.064;8.624;2023-07-29T07:39:00;19.70;99.90
9998;DHT22;5038;53.064;8.624;2023-07-29T07:41:28;19.70;99.90
9998;DHT22;5038;53.064;8.624;2023-07-29T07:43:56;19.70;99.90
9998;DHT22;5038;53.064;8.624;2023-07-29T07:46:24;19.70;99.90
9998;DHT22;5038;53.064;8.624;2023-07-29T07:48:52;19.70;99.90
9998;DHT22;5038;53.064;8.624;2023-07-29T07:51:22;19.70;99.90
9998;DHT22;5038;53.064;8.624;2023-07-29T07:53:50;19.70;99.90
9998;DHT22;5038;53.064;8.624;2023-07-29T07:56:18;19.70;99.90
9998;DHT22;5038;53.064;8.624;2023-07-29T07:58:46;19.80;99.90
9998;DHT22;5038;53.064;8.624;2023-07-29T08:01:14;19.80;99.90
9998;DHT22;5038;53.064;8.624;2023-07-29T08:03:43;19.80;99.90
9998;DHT22;5038;53.064;8.624;2023-07-29T08:06:11;19.80;99.90
9998;DHT22;5038;53.064;8.624;2023-07-29T08:08:40;19.90;99.90
9998;DHT22;5038;53.064;8.624;2023-07-29T08:11:08;19.90;99.90
9998;DHT22;5038;53.064;8.624;2023-07-29T08:13:36;20.00;99.90
9998;DHT22;5038;53.064;8.624;2023-07-29T08:16:05;20.00;99.90
9998;DHT22;5038;53.064;8.624;2023-07-29T08:18:33;20.10;99.90
9998;DHT22;5038;53.064;8.624;2023-07-29T08:21:01;20.10;99.90
9998;DHT22;5038;53.064;8.624;2023-07-29T08:23:32;20.20;99.90
9998;DHT22;5038;53.064;8.624;2023-07-29T08:26:03;20.20;99.90
9998;DHT22;5038;53.064;8.624;2023-07-29T08:28:33;20.20;99.90
9998;DHT22;5038;53.064;8.624;2023-07-29T08:31:01;20.30;99.90
9998;DHT22;5038;53.064;8.624;2023-07-29T08:33:30;20.30;99.90
9998;DHT22;5038;53.064;8.624;2023-07-29T08:36:00;20.30;99.90
9998;DHT22;5038;53.064;8.624;2023-07-29T08:38:28;20.40;99.90
9998;DHT22;5038;53.064;8.624;2023-07-29T08:40:59;20.40;99.90
9998;DHT22;5038;53.064;8.624;2023-07-29T08:43:33;20.40;99.90
9998;DHT22;5038;53.064;8.624;2023-07-29T08:46:01;20.40;99.90
9998;DHT22;5038;53.064;8.624;2023-07-29T08:48:32;20.40;99.90
9998;DHT22;5038;53.064;8.624;2023-07-29T08:51:03;20.50;99.90
9998;DHT22;5038;53.064;8.624;2023-07-29T08:53:32;20.50;99.90
9998;DHT22;5038;53.064;8.624;2023-07-29T08:56:01;20.60;99.90
9998;DHT22;5038;53.064;8.624;2023-07-29T08:58:29;20.60;99.90
9998;DHT22;5038;53.064;8.624;2023-07-29T09:00:59;20.60;99.90
9998;DHT22;5038;53.064;8.624;2023-07-29T09:03:27;20.70;99.90
9998;DHT22;5038;53.064;8.624;2023-07-29T09:05:55;20.70;99.90
9998;DHT22;5038;53.064;8.624;2023-07-29T09:08:26;20.70;99.90
9998;DHT22;5038;53.064;8.624;2023-07-29T09:10:54;20.70;99.90
9998;DHT22;5038;53.064;8.624;2023-07-29T09:13:22;20.70;99.90
9998;DHT22;5038;53.064;8.624;2023-07-29T09:15:54;20.80;99.90
9998;DHT22;5038;53.064;8.624;2023-07-29T09:18:26;20.80;99.90
9998;DHT22;5038;53.064;8.624;2023-07-29T09:20:58;20.80;99.90
9998;DHT22;5038;53.064;8.624;2023-07-29T09:23:27;20.90;99.90
9998;DHT22;5038;53.064;8.624;2023-07-29T09:26:01;20.90;99.90
9998;DHT22;5038;53.064;8.624;2023-07-29T09:28:33;20.90;99.90
9998;DHT22;5038;53.064;8.624;2023-07-29T09:31:03;21.00;99.90
9998;DHT22;5038;53.064;8.624;2023-07-29T09:33:35;21.00;99.90
9998;DHT22;5038;53.064;8.624;2023-07-29T09:36:08;21.10;99.90
9998;DHT22;5038;53.064;8.624;2023-07-29T09:38:37;21.10;99.90
9998;DHT22;5038;53.064;8.624;2023-07-29T09:41:06;21.20;99.90
9998;DHT22;5038;53.064;8.624;2023-07-29T09:43:35;21.20;99.90
9998;DHT22;5038;53.064;8.624;2023-07-29T09:46:04;21.30;99.90
9998;DHT22;5038;53.064;8.624;2023-07-29T09:48:35;21.40;99.90
9998;DHT22;5038;53.064;8.624;2023-07-29T09:51:10;21.40;99.90
9998;DHT22;5038;53.064;8.624;2023-07-29T09:53:40;21.50;99.90
9998;DHT22;5038;53.064;8.624;2023-07-29T09:56:13;21.60;99.90
9998;DHT22;5038;53.064;8.624;2023-07-29T09:58:43;21.70;99.90
9998;DHT22;5038;53.064;8.624;2023-07-29T10:01:13;21.80;99.90
9998;DHT22;5038;53.064;8.624;2023-07-29T10:03:44;21.80;99.90
9998;DHT22;5038;53.064;8.624;2023-07-29T10:06:14;21.90;99.90
9998;DHT22;5038;53.064;8.624;2023-07-29T10:08:43;21.90;99.90
9998;DHT22;5038;53.064;8.624;2023-07-29T10:11:11;21.90;99.90
9998;DHT22;5038;53.064;8.624;2023-07-29T10:13:40;22.00;99.90
9998;DHT22;5038;53.064;8.624;2023-07-29T10:16:16;21.90;99.90
9998;DHT22;5038;53.064;8.624;2023-07-29T10:18:45;21.90;99.90
9998;DHT22;5038;53.064;8.624;2023-07-29T10:21:14;21.90;99.90
9998;DHT22;5038;53.064;8.624;2023-07-29T10:23:47;21.80;99.90
9998;DHT22;5038;53.064;8.624;2023-07-29T10:26:19;21.80;99.90
9998;DHT22;5038;53.064;8.624;2023-07-29T10:28:48;21.80;99.90
9998;DHT22;5038;53.064;8.624;2023-07-29T10:31:21;21.80;99.90
9998;DHT22;5038;53.064;8.624;2023-07-29T10:33:52;21.90;99.90
9998;DHT22;5038;53.064;8.624;2023-07-29T10:36:20;22.00;99.90
9998;DHT22;5038;53.064;8.624;2023-07-29T10:38:49;22.10;99.90
9998;DHT22;5038;53.064;8.624;2023-07-29T10:41:17;22.20;99.90
9998;DHT22;5038;53.064;8.624;2023-07-29T10:43:45;22.20;99.90
9998;DHT22;5038;53.064;8.624;2023-07-29T10:46:18;22.30;99.90
9998;DHT22;5038;53.064;8.624;2023-07-29T10:48:54;22.30;99.90
9998;DHT22;5038;53.064;8.624;2023-07-29T10:51:24;22.40;99.90
9998;DHT22;5038;53.064;8.624;2023-07-29T10:53:55;22.50;99.90
9998;DHT22;5038;53.064;8.624;2023-07-29T10:56:31;22.60;99.90
9998;DHT22;5038;53.064;8.624;2023-07-29T10:59:22;22.70;99.90
9998;DHT22;5038;53.064;8.624;2023-07-29T11:01:53;22.70;99.90
9998;DHT22;5038;53.064;8.624;2023-07-29T11:04:26;22.70;99.90
9998;DHT22;5038;53.064;8.624;2023-07-29T11:07:26;22.60;99.90
9998;DHT22;5038;53.064;8.624;2023-07-29T11:10:02;22.60;99.90
9998;DHT22;5038;53.064;8.624;2023-07-29T11:12:41;22.60;99.90
9998;DHT22;5038;53.064;8.624;2023-07-29T11:15:15;22.60;99.90
9998;DHT22;5038;53.064;8.624;2023-07-29T11:17:45;22.60;99.90
9998;DHT22;5038;53.064;8.624;2023-07-29T11:20:16;22.50;99.90
9998;DHT22;5038;53.064;8.624;2023-07-29T11:22:45;22.50;99.90
9998;DHT22;5038;53.064;8.624;2023-07-29T11:25:15;22.50;99.90
9998;DHT22;5038;53.064;8.624;2023-07-29T11:27:44;22.40;99.90
9998;DHT22;5038;53.064;8.624;2023-07-29T11:30:13;22.40;99.90
9998;DHT22;5038;53.064;8.624;2023-07-29T11:32:44;22.40;99.90
9998;DHT22;5038;53.064;8.624;2023-07-29T11:35:13;22.40;99.90
9998;DHT22;5038;53.064;8.624;2023-07-29T11:37:44;22.40;99.90
9998;DHT22;5038;53.064;8.624;2023-07-29T11:40:14;22.40;99.90
9998;DHT22;5038;53.064;8.624;2023-07-29T11:42:43;22.40;99.90
9998;DHT22;5038;53.064;8.624;2023-07-29T11:45:13;22.40;99.90
9998;DHT22;5038;53.064;8.624;2023-07-29T11:47:44;22.40;99.90
9998;DHT22;5038;53.064;8.624;2023-07-29T11:50:13;22.40;99.90
9998;DHT22;5038;53.064;8.624;2023-07-29T11:52:44;22.40;99.90
9998;DHT22;5038;53.064;8.624;2023-07-29T11:55:13;22.40;99.90
9998;DHT22;5038;53.064;8.624;2023-07-29T11:57:43;22.50;99.90
9998;DHT22;5038;53.064;8.624;2023-07-29T12:00:12;22.60;99.90
9998;DHT22;5038;53.064;8.624;2023-07-29T12:02:43;22.70;99.90
9998;DHT22;5038;53.064;8.624;2023-07-29T12:05:13;22.80;99.90
9998;DHT22;5038;53.064;8.624;2023-07-29T12:07:44;22.90;99.90
9998;DHT22;5038;53.064;8.624;2023-07-29T12:10:12;23.00;99.90
9998;DHT22;5038;53.064;8.624;2023-07-29T12:12:44;23.00;99.90
9998;DHT22;5038;53.064;8.624;2023-07-29T12:15:13;23.00;99.90
9998;DHT22;5038;53.064;8.624;2023-07-29T12:17:42;23.00;99.90
9998;DHT22;5038;53.064;8.624;2023-07-29T12:20:11;23.10;99.90
9998;DHT22;5038;53.064;8.624;2023-07-29T12:22:39;23.20;99.90
9998;DHT22;5038;53.064;8.624;2023-07-29T12:25:09;23.20;99.90
9998;DHT22;5038;53.064;8.624;2023-07-29T12:27:37;23.20;99.90
9998;DHT22;5038;53.064;8.624;2023-07-29T12:30:06;23.30;99.90
9998;DHT22;5038;53.064;8.624;2023-07-29T12:32:43;23.30;99.90
9998;DHT22;5038;53.064;8.624;2023-07-29T12:35:11;23.30;99.90
9998;DHT22;5038;53.064;8.624;2023-07-29T12:37:40;23.30;99.90
9998;DHT22;5038;53.064;8.624;2023-07-29T12:40:22;23.30;99.90
9998;DHT22;5038;53.064;8.624;2023-07-29T12:42:50;23.30;99.90
9998;DHT22;5038;53.064;8.624;2023-07-29T12:45:19;23.30;99.90
9998;DHT22;5038;53.064;8.624;2023-07-29T12:47:49;23.30;99.90
9998;DHT22;5038;53.064;8.624;2023-07-29T12:50:17;23.30;99.90
9998;DHT22;5038;53.064;8.624;2023-07-29T12:52:46;23.40;99.90
9998;DHT22;5038;53.064;8.624;2023-07-29T12:55:14;23.50;99.90
9998;DHT22;5038;53.064;8.624;2023-07-29T12:57:47;23.50;99.90
9998;DHT22;5038;53.064;8.624;2023-07-29T13:00:15;23.70;99.90
9998;DHT22;5038;53.064;8.624;2023-07-29T13:02:43;23.80;99.90
9998;DHT22;5038;53.064;8.624;2023-07-29T13:05:11;23.80;99.90
9998;DHT22;5038;53.064;8.624;2023-07-29T13:07:40;23.90;99.90
9998;DHT22;5038;53.064;8.624;2023-07-29T13:10:09;24.00;99.90
9998;DHT22;5038;53.064;8.624;2023-07-29T13:12:38;24.20;99.90
9998;DHT22;5038;53.064;8.624;2023-07-29T13:15:08;24.20;99.90
9998;DHT22;5038;53.064;8.624;2023-07-29T13:17:36;24.30;99.90
9998;DHT22;5038;53.064;8.624;2023-07-29T13:20:07;24.30;99.90
9998;DHT22;5038;53.064;8.624;2023-07-29T13:22:35;24.30;99.90
9998;DHT22;5038;53.064;8.624;2023-07-29T13:25:04;24.40;99.90
9998;DHT22;5038;53.064;8.624;2023-07-29T13:27:32;24.50;99.90
9998;DHT22;5038;53.064;8.624;2023-07-29T13:30:00;24.50;99.90
9998;DHT22;5038;53.064;8.624;2023-07-29T13:32:29;24.60;99.90
9998;DHT22;5038;53.064;8.624;2023-07-29T13:34:58;24.60;99.90
9998;DHT22;5038;53.064;8.624;2023-07-29T13:37:26;24.50;99.90
9998;DHT22;5038;53.064;8.624;2023-07-29T13:39:54;24.50;99.90
9998;DHT22;5038;53.064;8.624;2023-07-29T13:42:22;24.50;99.90
9998;DHT22;5038;53.064;8.624;2023-07-29T13:44:50;24.40;99.90
9998;DHT22;5038;53.064;8.624;2023-07-29T13:47:18;24.40;99.90
9998;DHT22;5038;53.064;8.624;2023-07-29T13:49:47;24.40;99.90
9998;DHT22;5038;53.064;8.624;2023-07-29T13:52:15;24.40;99.90
9998;DHT22;5038;53.064;8.624;2023-07-29T13:54:44;24.50;99.90
9998;DHT22;5038;53.064;8.624;2023-07-29T13:57:12;24.50;99.90
9998;DHT22;5038;53.064;8.624;2023-07-29T13:59:40;24.50;99.90
9998;DHT22;5038;53.064;8.624;2023-07-29T14:02:08;24.50;99.90
9998;DHT22;5038;53.064;8.624;2023-07-29T14:04:36;24.50;99.90
9998;DHT22;5038;53.064;8.624;2023-07-29T14:07:06;24.70;99.90
9998;DHT22;5038;53.064;8.624;2023-07-29T14:09:34;24.70;99.90
9998;DHT22;5038;53.064;8.624;2023-07-29T14:12:03;24.70;99.90
9998;DHT22;5038;53.064;8.624;2023-07-29T14:14:31;24.70;99.90
9998;DHT22;5038;53.064;8.624;2023-07-29T14:16:59;24.70;99.90
9998;DHT22;5038;53.064;8.624;2023-07-29T14:19:28;24.70;99.90
9998;DHT22;5038;53.064;8.624;2023-07-29T14:21:56;24.70;99.90
9998;DHT22;5038;53.064;8.624;2023-07-29T14:24:25;24.70;99.90
9998;DHT22;5038;53.064;8.624;2023-07-29T14:26:53;24.80;99.90
9998;DHT22;5038;53.064;8.624;2023-07-29T14:29:21;24.80;99.90
9998;DHT22;5038;53.064;8.624;2023-07-29T14:31:48;24.90;99.90
9998;DHT22;5038;53.064;8.624;2023-07-29T14:34:17;24.90;99.90
9998;DHT22;5038;53.064;8.624;2023-07-29T14:36:45;24.90;99.90
9998;DHT22;5038;53.064;8.624;2023-07-29T14:39:13;24.90;99.90
9998;DHT22;5038;53.064;8.624;2023-07-29T14:41:42;24.80;99.90
9998;DHT22;5038;53.064;8.624;2023-07-29T14:44:10;24.70;99.90
9998;DHT22;5038;53.064;8.624;2023-07-29T14:46:38;24.70;99.90
9998;DHT22;5038;53.064;8.624;2023-07-29T14:49:06;24.60;99.90
9998;DHT22;5038;53.064;8.624;2023-07-29T14:51:35;24.50;99.90
9998;DHT22;5038;53.064;8.624;2023-07-29T14:54:04;24.30;99.90
9998;DHT22;5038;53.064;8.624;2023-07-29T14:56:32;24.00;99.90
9998;DHT22;5038;53.064;8.624;2023-07-29T14:59:02;23.80;99.90
9998;DHT22;5038;53.064;8.624;2023-07-29T15:01:30;23.50;99.90
9998;DHT22;5038;53.064;8.624;2023-07-29T15:03:59;23.40;99.90
9998;DHT22;5038;53.064;8.624;2023-07-29T15:06:27;23.20;99.90
9998;DHT22;5038;53.064;8.624;2023-07-29T15:08:55;23.00;99.90
9998;DHT22;5038;53.064;8.624;2023-07-29T15:11:23;22.90;99.90
9998;DHT22;5038;53.064;8.624;2023-07-29T15:13:51;22.80;99.90
9998;DHT22;5038;53.064;8.624;2023-07-29T15:16:23;22.70;99.90
9998;DHT22;5038;53.064;8.624;2023-07-29T15:18:51;22.60;99.90
9998;DHT22;5038;53.064;8.624;2023-07-29T15:21:20;22.40;99.90
9998;DHT22;5038;53.064;8.624;2023-07-29T15:23:48;22.30;99.90
9998;DHT22;5038;53.064;8.624;2023-07-29T15:26:16;22.20;99.90
9998;DHT22;5038;53.064;8.624;2023-07-29T15:28:44;22.10;99.90
9998;DHT22;5038;53.064;8.624;2023-07-29T15:31:12;22.00;99.90
9998;DHT22;5038;53.064;8.624;2023-07-29T15:33:42;22.00;99.90
9998;DHT22;5038;53.064;8.624;2023-07-29T15:36:10;22.00;99.90
9998;DHT22;5038;53.064;8.624;2023-07-29T15:38:38;21.90;99.90
9998;DHT22;5038;53.064;8.624;2023-07-29T15:41:06;21.90;99.90
9998;DHT22;5038;53.064;8.624;2023-07-29T15:43:34;21.80;99.90
9998;DHT22;5038;53.064;8.624;2023-07-29T15:46:02;21.80;99.90
9998;DHT22;5038;53.064;8.624;2023-07-29T15:48:30;21.70;99.90
9998;DHT22;5038;53.064;8.624;2023-07-29T15:51:00;21.70;99.90
9998;DHT22;5038;53.064;8.624;2023-07-29T15:53:28;21.70;99.90
9998;DHT22;5038;53.064;8.624;2023-07-29T15:55:56;21.60;99.90
9998;DHT22;5038;53.064;8.624;2023-07-29T15:58:25;21.60;99.90
9998;DHT22;5038;53.064;8.624;2023-07-29T16:00:53;21.60;99.90
9998;DHT22;5038;53.064;8.624;2023-07-29T16:03:21;21.40;99.90
9998;DHT22;5038;53.064;8.624;2023-07-29T16:05:49;20.90;99.90
9998;DHT22;5038;53.064;8.624;2023-07-29T16:08:19;20.50;99.90
9998;DHT22;5038;53.064;8.624;2023-07-29T16:10:47;20.20;99.90
9998;DHT22;5038;53.064;8.624;2023-07-29T16:13:15;19.90;99.90
9998;DHT22;5038;53.064;8.624;2023-07-29T16:15:45;19.70;99.90